Flugplatz Reinsdorf

Für EDOD sind keine METAR/TAF Berichte vorhanden.
Es werden die Flugwettermeldungen vom Flugplatz Holzdorf Airport in 14 km Entfernung angezeigt.

Bericht für ETSH

vom 25.01. um 23:20 UTC

Wind 4 kt aus 200°

Sichtweite 4000 m

feuchter Dunst

aufgebrochene Bewölkung in 400 ft

Temperatur -1.0°C

Taupunkt -2.0°C

Luftfeuchtigkeit 93%

Luftdruck 1021 hPa

ETSH 252320Z 20004KT 4000 BR BKN004 M01/M02 Q1021 YLO
Keine Prognose (TAF) verfügbar.
Impressum